sensor_id;sensor_type;location;lat;lon;timestamp;P1;durP1;ratioP1;P2;durP2;ratioP2
33148;SDS011;19506;51.040;3.856;2023-01-04T00:02:05;2.78;;;1.60;;
33148;SDS011;19506;51.040;3.856;2023-01-04T00:04:31;2.05;;;1.20;;
33148;SDS011;19506;51.040;3.856;2023-01-04T00:06:57;3.22;;;1.50;;
33148;SDS011;19506;51.040;3.856;2023-01-04T00:09:22;2.15;;;1.33;;
33148;SDS011;19506;51.040;3.856;2023-01-04T00:11:48;2.67;;;1.27;;
33148;SDS011;19506;51.040;3.856;2023-01-04T00:14:14;1.80;;;1.15;;
33148;SDS011;19506;51.040;3.856;2023-01-04T00:16:41;3.53;;;1.20;;
33148;SDS011;19506;51.040;3.856;2023-01-04T00:19:06;2.47;;;1.20;;
33148;SDS011;19506;51.040;3.856;2023-01-04T00:21:35;3.63;;;1.25;;
33148;SDS011;19506;51.040;3.856;2023-01-04T00:24:00;3.08;;;1.10;;
33148;SDS011;19506;51.040;3.856;2023-01-04T00:26:27;1.90;;;1.40;;
33148;SDS011;19506;51.040;3.856;2023-01-04T00:28:56;2.63;;;1.00;;
33148;SDS011;19506;51.040;3.856;2023-01-04T00:31:23;1.10;;;0.90;;
33148;SDS011;19506;51.040;3.856;2023-01-04T00:33:53;5.07;;;1.13;;
33148;SDS011;19506;51.040;3.856;2023-01-04T00:36:19;2.08;;;1.10;;
33148;SDS011;19506;51.040;3.856;2023-01-04T00:38:45;5.22;;;1.20;;
33148;SDS011;19506;51.040;3.856;2023-01-04T00:41:11;3.38;;;1.23;;
33148;SDS011;19506;51.040;3.856;2023-01-04T00:43:40;2.05;;;1.15;;
33148;SDS011;19506;51.040;3.856;2023-01-04T00:46:06;1.83;;;0.80;;
33148;SDS011;19506;51.040;3.856;2023-01-04T00:48:35;5.43;;;1.02;;
33148;SDS011;19506;51.040;3.856;2023-01-04T00:51:01;2.60;;;1.27;;
33148;SDS011;19506;51.040;3.856;2023-01-04T00:53:26;3.65;;;1.05;;
33148;SDS011;19506;51.040;3.856;2023-01-04T00:55:57;4.70;;;1.10;;
33148;SDS011;19506;51.040;3.856;2023-01-04T00:58:24;2.08;;;0.93;;
33148;SDS011;19506;51.040;3.856;2023-01-04T01:00:50;1.65;;;0.98;;
33148;SDS011;19506;51.040;3.856;2023-01-04T01:03:15;3.17;;;1.35;;
33148;SDS011;19506;51.040;3.856;2023-01-04T01:05:41;1.55;;;1.10;;
33148;SDS011;19506;51.040;3.856;2023-01-04T01:08:06;1.42;;;1.17;;
33148;SDS011;19506;51.040;3.856;2023-01-04T01:10:49;2.47;;;1.13;;
33148;SDS011;19506;51.040;3.856;2023-01-04T01:13:16;2.88;;;1.25;;
33148;SDS011;19506;51.040;3.856;2023-01-04T01:15:41;2.63;;;1.10;;
33148;SDS011;19506;51.040;3.856;2023-01-04T01:18:07;1.83;;;1.17;;
33148;SDS011;19506;51.040;3.856;2023-01-04T01:20:33;1.52;;;0.98;;
33148;SDS011;19506;51.040;3.856;2023-01-04T01:22:58;1.25;;;0.98;;
33148;SDS011;19506;51.040;3.856;2023-01-04T01:25:24;2.33;;;1.10;;
33148;SDS011;19506;51.040;3.856;2023-01-04T01:27:49;1.10;;;0.93;;
33148;SDS011;19506;51.040;3.856;2023-01-04T01:30:15;4.13;;;1.30;;
33148;SDS011;19506;51.040;3.856;2023-01-04T01:32:41;1.98;;;1.10;;
33148;SDS011;19506;51.040;3.856;2023-01-04T01:35:06;4.35;;;1.00;;
33148;SDS011;19506;51.040;3.856;2023-01-04T01:37:32;2.72;;;0.85;;
33148;SDS011;19506;51.040;3.856;2023-01-04T01:39:58;1.80;;;1.15;;
33148;SDS011;19506;51.040;3.856;2023-01-04T01:42:24;1.60;;;1.00;;
33148;SDS011;19506;51.040;3.856;2023-01-04T01:44:55;2.78;;;1.33;;
33148;SDS011;19506;51.040;3.856;2023-01-04T01:47:25;0.68;;;0.63;;
33148;SDS011;19506;51.040;3.856;2023-01-04T01:49:59;5.50;;;1.55;;
33148;SDS011;19506;51.040;3.856;2023-01-04T01:52:30;1.38;;;1.08;;
33148;SDS011;19506;51.040;3.856;2023-01-04T01:54:59;1.67;;;0.88;;
33148;SDS011;19506;51.040;3.856;2023-01-04T01:57:29;1.10;;;0.90;;
33148;SDS011;19506;51.040;3.856;2023-01-04T01:59:58;1.08;;;0.90;;
33148;SDS011;19506;51.040;3.856;2023-01-04T02:02:27;2.78;;;0.90;;
33148;SDS011;19506;51.040;3.856;2023-01-04T02:04:53;1.05;;;0.95;;
33148;SDS011;19506;51.040;3.856;2023-01-04T02:07:21;2.22;;;0.85;;
33148;SDS011;19506;51.040;3.856;2023-01-04T02:09:50;1.55;;;0.77;;
33148;SDS011;19506;51.040;3.856;2023-01-04T02:12:16;2.58;;;1.05;;
33148;SDS011;19506;51.040;3.856;2023-01-04T02:14:42;1.58;;;1.00;;
33148;SDS011;19506;51.040;3.856;2023-01-04T02:17:13;1.90;;;1.13;;
33148;SDS011;19506;51.040;3.856;2023-01-04T02:35:59;1.33;;;0.90;;
33148;SDS011;19506;51.040;3.856;2023-01-04T02:41:20;1.60;;;0.90;;
33148;SDS011;19506;51.040;3.856;2023-01-04T02:47:23;1.58;;;0.90;;
33148;SDS011;19506;51.040;3.856;2023-01-04T02:50:21;2.13;;;0.90;;
33148;SDS011;19506;51.040;3.856;2023-01-04T02:53:07;2.95;;;1.00;;
33148;SDS011;19506;51.040;3.856;2023-01-04T02:55:51;1.75;;;0.88;;
33148;SDS011;19506;51.040;3.856;2023-01-04T03:01:13;1.25;;;0.93;;
33148;SDS011;19506;51.040;3.856;2023-01-04T03:07:26;0.55;;;0.55;;
33148;SDS011;19506;51.040;3.856;2023-01-04T03:10:20;1.17;;;0.80;;
33148;SDS011;19506;51.040;3.856;2023-01-04T03:15:48;0.93;;;0.73;;
33148;SDS011;19506;51.040;3.856;2023-01-04T03:18:28;0.80;;;0.68;;
33148;SDS011;19506;51.040;3.856;2023-01-04T03:20:58;2.33;;;0.80;;
33148;SDS011;19506;51.040;3.856;2023-01-04T03:23:28;2.33;;;0.77;;
33148;SDS011;19506;51.040;3.856;2023-01-04T03:26:25;1.65;;;1.00;;
33148;SDS011;19506;51.040;3.856;2023-01-04T03:29:20;1.25;;;0.80;;
33148;SDS011;19506;51.040;3.856;2023-01-04T03:32:51;0.93;;;0.73;;
33148;SDS011;19506;51.040;3.856;2023-01-04T03:35:42;1.17;;;0.93;;
33148;SDS011;19506;51.040;3.856;2023-01-04T03:38:16;2.58;;;0.85;;
33148;SDS011;19506;51.040;3.856;2023-01-04T03:44:22;1.25;;;0.70;;
33148;SDS011;19506;51.040;3.856;2023-01-04T03:47:20;1.70;;;0.82;;
33148;SDS011;19506;51.040;3.856;2023-01-04T03:50:14;1.52;;;0.98;;
33148;SDS011;19506;51.040;3.856;2023-01-04T03:52:49;1.63;;;0.70;;
33148;SDS011;19506;51.040;3.856;2023-01-04T03:55:16;2.13;;;0.90;;
33148;SDS011;19506;51.040;3.856;2023-01-04T03:57:43;1.95;;;0.85;;
33148;SDS011;19506;51.040;3.856;2023-01-04T04:00:11;3.70;;;0.90;;
33148;SDS011;19506;51.040;3.856;2023-01-04T04:02:39;2.17;;;0.80;;
33148;SDS011;19506;51.040;3.856;2023-01-04T04:05:06;0.90;;;0.73;;
33148;SDS011;19506;51.040;3.856;2023-01-04T04:07:50;5.20;;;1.35;;
33148;SDS011;19506;51.040;3.856;2023-01-04T04:10:34;2.10;;;0.98;;
33148;SDS011;19506;51.040;3.856;2023-01-04T04:13:00;1.88;;;0.80;;
33148;SDS011;19506;51.040;3.856;2023-01-04T04:15:26;0.60;;;0.57;;
33148;SDS011;19506;51.040;3.856;2023-01-04T04:17:52;0.75;;;0.75;;
33148;SDS011;19506;51.040;3.856;2023-01-04T04:20:17;6.85;;;1.10;;
33148;SDS011;19506;51.040;3.856;2023-01-04T04:22:43;0.75;;;0.75;;
33148;SDS011;19506;51.040;3.856;2023-01-04T04:25:09;0.80;;;0.60;;
33148;SDS011;19506;51.040;3.856;2023-01-04T04:27:34;1.08;;;0.70;;
33148;SDS011;19506;51.040;3.856;2023-01-04T04:30:00;1.13;;;0.68;;
33148;SDS011;19506;51.040;3.856;2023-01-04T04:32:26;2.22;;;1.05;;
33148;SDS011;19506;51.040;3.856;2023-01-04T04:34:52;1.60;;;0.93;;
33148;SDS011;19506;51.040;3.856;2023-01-04T04:37:18;1.50;;;0.77;;
33148;SDS011;19506;51.040;3.856;2023-01-04T04:39:43;0.82;;;0.60;;
33148;SDS011;19506;51.040;3.856;2023-01-04T04:44:35;0.55;;;0.55;;
33148;SDS011;19506;51.040;3.856;2023-01-04T04:47:00;0.60;;;0.50;;
33148;SDS011;19506;51.040;3.856;2023-01-04T04:49:26;2.13;;;0.85;;
33148;SDS011;19506;51.040;3.856;2023-01-04T04:51:52;1.10;;;0.80;;
33148;SDS011;19506;51.040;3.856;2023-01-04T04:54:18;2.13;;;0.60;;
33148;SDS011;19506;51.040;3.856;2023-01-04T04:56:46;1.05;;;0.70;;
33148;SDS011;19506;51.040;3.856;2023-01-04T04:59:13;1.88;;;0.75;;
33148;SDS011;19506;51.040;3.856;2023-01-04T05:01:38;0.60;;;0.60;;
33148;SDS011;19506;51.040;3.856;2023-01-04T05:04:04;0.70;;;0.70;;
33148;SDS011;19506;51.040;3.856;2023-01-04T05:06:30;2.00;;;0.80;;
33148;SDS011;19506;51.040;3.856;2023-01-04T05:08:56;2.10;;;0.52;;
33148;SDS011;19506;51.040;3.856;2023-01-04T05:14:05;0.47;;;0.47;;
33148;SDS011;19506;51.040;3.856;2023-01-04T05:16:32;12.40;;;1.48;;
33148;SDS011;19506;51.040;3.856;2023-01-04T05:18:57;0.50;;;0.50;;
33148;SDS011;19506;51.040;3.856;2023-01-04T05:21:23;0.70;;;0.57;;
33148;SDS011;19506;51.040;3.856;2023-01-04T05:23:48;1.42;;;0.70;;
33148;SDS011;19506;51.040;3.856;2023-01-04T05:28:40;0.75;;;0.70;;
33148;SDS011;19506;51.040;3.856;2023-01-04T05:31:05;2.13;;;0.55;;
33148;SDS011;19506;51.040;3.856;2023-01-04T05:33:31;1.00;;;0.90;;
33148;SDS011;19506;51.040;3.856;2023-01-04T05:35:58;1.02;;;0.60;;
33148;SDS011;19506;51.040;3.856;2023-01-04T05:38:25;0.68;;;0.68;;
33148;SDS011;19506;51.040;3.856;2023-01-04T05:40:52;0.60;;;0.60;;
33148;SDS011;19506;51.040;3.856;2023-01-04T05:43:19;0.68;;;0.68;;
33148;SDS011;19506;51.040;3.856;2023-01-04T05:45:46;1.38;;;0.80;;
33148;SDS011;19506;51.040;3.856;2023-01-04T05:48:13;1.35;;;0.80;;
33148;SDS011;19506;51.040;3.856;2023-01-04T05:53:05;2.20;;;0.85;;
33148;SDS011;19506;51.040;3.856;2023-01-04T05:55:31;0.70;;;0.65;;
33148;SDS011;19506;51.040;3.856;2023-01-04T05:57:57;0.57;;;0.57;;
33148;SDS011;19506;51.040;3.856;2023-01-04T06:02:48;0.60;;;0.60;;
33148;SDS011;19506;51.040;3.856;2023-01-04T06:05:16;0.77;;;0.77;;
33148;SDS011;19506;51.040;3.856;2023-01-04T06:10:08;0.73;;;0.68;;
33148;SDS011;19506;51.040;3.856;2023-01-04T06:12:35;0.43;;;0.43;;
33148;SDS011;19506;51.040;3.856;2023-01-04T06:17:27;0.68;;;0.63;;
33148;SDS011;19506;51.040;3.856;2023-01-04T06:19:52;3.80;;;0.60;;
33148;SDS011;19506;51.040;3.856;2023-01-04T06:22:18;0.70;;;0.65;;
33148;SDS011;19506;51.040;3.856;2023-01-04T06:24:44;0.80;;;0.60;;
33148;SDS011;19506;51.040;3.856;2023-01-04T06:27:10;0.50;;;0.50;;
33148;SDS011;19506;51.040;3.856;2023-01-04T06:29:36;0.60;;;0.60;;
33148;SDS011;19506;51.040;3.856;2023-01-04T06:32:01;0.80;;;0.80;;
33148;SDS011;19506;51.040;3.856;2023-01-04T06:34:27;1.00;;;0.60;;
33148;SDS011;19506;51.040;3.856;2023-01-04T06:36:53;0.82;;;0.80;;
33148;SDS011;19506;51.040;3.856;2023-01-04T06:39:19;7.03;;;0.63;;
33148;SDS011;19506;51.040;3.856;2023-01-04T06:41:44;2.00;;;0.80;;
33148;SDS011;19506;51.040;3.856;2023-01-04T06:46:35;0.52;;;0.50;;
33148;SDS011;19506;51.040;3.856;2023-01-04T06:49:01;2.38;;;0.80;;
33148;SDS011;19506;51.040;3.856;2023-01-04T06:51:27;2.33;;;0.80;;
33148;SDS011;19506;51.040;3.856;2023-01-04T06:53:52;4.25;;;0.90;;
33148;SDS011;19506;51.040;3.856;2023-01-04T06:56:18;5.60;;;0.98;;
33148;SDS011;19506;51.040;3.856;2023-01-04T06:58:44;2.53;;;1.33;;
33148;SDS011;19506;51.040;3.856;2023-01-04T07:01:09;6.53;;;1.58;;
33148;SDS011;19506;51.040;3.856;2023-01-04T07:03:35;8.48;;;1.88;;
33148;SDS011;19506;51.040;3.856;2023-01-04T07:06:04;7.18;;;1.85;;
33148;SDS011;19506;51.040;3.856;2023-01-04T07:08:31;9.88;;;2.22;;
33148;SDS011;19506;51.040;3.856;2023-01-04T07:10:57;11.88;;;2.13;;
33148;SDS011;19506;51.040;3.856;2023-01-04T07:15:48;8.52;;;2.08;;
33148;SDS011;19506;51.040;3.856;2023-01-04T07:18:13;6.72;;;1.85;;
33148;SDS011;19506;51.040;3.856;2023-01-04T07:20:39;5.03;;;1.38;;
33148;SDS011;19506;51.040;3.856;2023-01-04T07:23:05;4.72;;;1.55;;
33148;SDS011;19506;51.040;3.856;2023-01-04T07:25:32;4.85;;;1.60;;
33148;SDS011;19506;51.040;3.856;2023-01-04T07:30:23;14.60;;;1.90;;
33148;SDS011;19506;51.040;3.856;2023-01-04T07:32:50;7.18;;;1.85;;
33148;SDS011;19506;51.040;3.856;2023-01-04T07:35:17;2.97;;;1.40;;
33148;SDS011;19506;51.040;3.856;2023-01-04T07:37:43;5.97;;;1.95;;
33148;SDS011;19506;51.040;3.856;2023-01-04T07:42:35;7.88;;;2.00;;
33148;SDS011;19506;51.040;3.856;2023-01-04T07:45:01;10.57;;;1.70;;
33148;SDS011;19506;51.040;3.856;2023-01-04T07:47:27;10.43;;;1.38;;
33148;SDS011;19506;51.040;3.856;2023-01-04T07:52:18;4.85;;;1.42;;
33148;SDS011;19506;51.040;3.856;2023-01-04T07:54:45;7.78;;;2.90;;
33148;SDS011;19506;51.040;3.856;2023-01-04T07:59:36;7.00;;;1.75;;
33148;SDS011;19506;51.040;3.856;2023-01-04T08:02:01;2.75;;;1.13;;
33148;SDS011;19506;51.040;3.856;2023-01-04T08:04:27;6.70;;;1.30;;
33148;SDS011;19506;51.040;3.856;2023-01-04T08:06:53;3.55;;;1.38;;
33148;SDS011;19506;51.040;3.856;2023-01-04T08:09:18;3.05;;;1.60;;
33148;SDS011;19506;51.040;3.856;2023-01-04T08:11:44;2.17;;;1.20;;
33148;SDS011;19506;51.040;3.856;2023-01-04T08:14:10;4.68;;;1.55;;
33148;SDS011;19506;51.040;3.856;2023-01-04T08:16:37;10.68;;;2.28;;
33148;SDS011;19506;51.040;3.856;2023-01-04T08:19:05;5.10;;;1.30;;
33148;SDS011;19506;51.040;3.856;2023-01-04T08:21:35;4.40;;;1.73;;
33148;SDS011;19506;51.040;3.856;2023-01-04T08:26:26;4.38;;;1.67;;
33148;SDS011;19506;51.040;3.856;2023-01-04T08:28:53;3.78;;;1.15;;
33148;SDS011;19506;51.040;3.856;2023-01-04T08:31:22;7.53;;;1.40;;
33148;SDS011;19506;51.040;3.856;2023-01-04T08:33:51;2.95;;;1.25;;
33148;SDS011;19506;51.040;3.856;2023-01-04T08:38:47;5.68;;;1.60;;
33148;SDS011;19506;51.040;3.856;2023-01-04T08:41:15;2.15;;;1.15;;
33148;SDS011;19506;51.040;3.856;2023-01-04T08:43:41;3.63;;;1.42;;
33148;SDS011;19506;51.040;3.856;2023-01-04T08:46:08;5.57;;;1.40;;
33148;SDS011;19506;51.040;3.856;2023-01-04T08:48:35;8.73;;;2.33;;
33148;SDS011;19506;51.040;3.856;2023-01-04T08:53:27;8.07;;;1.30;;
33148;SDS011;19506;51.040;3.856;2023-01-04T08:55:53;5.60;;;1.40;;
33148;SDS011;19506;51.040;3.856;2023-01-04T08:58:19;4.53;;;1.63;;
33148;SDS011;19506;51.040;3.856;2023-01-04T09:00:46;2.90;;;1.13;;
33148;SDS011;19506;51.040;3.856;2023-01-04T09:05:37;1.80;;;1.20;;
33148;SDS011;19506;51.040;3.856;2023-01-04T09:08:03;4.22;;;1.23;;
33148;SDS011;19506;51.040;3.856;2023-01-04T09:10:29;5.63;;;1.52;;
33148;SDS011;19506;51.040;3.856;2023-01-04T09:12:55;7.28;;;1.38;;
33148;SDS011;19506;51.040;3.856;2023-01-04T09:17:48;7.53;;;1.17;;
33148;SDS011;19506;51.040;3.856;2023-01-04T09:20:14;2.13;;;1.20;;
33148;SDS011;19506;51.040;3.856;2023-01-04T09:22:40;4.13;;;1.65;;
33148;SDS011;19506;51.040;3.856;2023-01-04T09:25:06;2.88;;;1.13;;
33148;SDS011;19506;51.040;3.856;2023-01-04T09:29:58;2.83;;;1.00;;
33148;SDS011;19506;51.040;3.856;2023-01-04T09:32:24;3.92;;;1.17;;
33148;SDS011;19506;51.040;3.856;2023-01-04T09:34:50;3.05;;;1.20;;
33148;SDS011;19506;51.040;3.856;2023-01-04T09:39:41;2.80;;;1.08;;
33148;SDS011;19506;51.040;3.856;2023-01-04T09:42:15;2.20;;;1.05;;
33148;SDS011;19506;51.040;3.856;2023-01-04T09:44:50;3.25;;;1.30;;
33148;SDS011;19506;51.040;3.856;2023-01-04T09:47:38;3.80;;;1.50;;
33148;SDS011;19506;51.040;3.856;2023-01-04T09:52:42;2.78;;;0.88;;
33148;SDS011;19506;51.040;3.856;2023-01-04T09:55:19;2.22;;;0.95;;
33148;SDS011;19506;51.040;3.856;2023-01-04T09:57:52;1.38;;;1.00;;
33148;SDS011;19506;51.040;3.856;2023-01-04T10:00:27;3.30;;;1.42;;
33148;SDS011;19506;51.040;3.856;2023-01-04T10:05:39;2.50;;;1.17;;
33148;SDS011;19506;51.040;3.856;2023-01-04T10:08:11;2.72;;;1.20;;
33148;SDS011;19506;51.040;3.856;2023-01-04T10:16:46;1.42;;;1.33;;
33148;SDS011;19506;51.040;3.856;2023-01-04T10:27:06;2.50;;;1.15;;
33148;SDS011;19506;51.040;3.856;2023-01-04T10:29:47;2.38;;;1.27;;
33148;SDS011;19506;51.040;3.856;2023-01-04T10:32:34;5.90;;;1.85;;
33148;SDS011;19506;51.040;3.856;2023-01-04T10:35:16;3.72;;;1.40;;
33148;SDS011;19506;51.040;3.856;2023-01-04T10:37:47;4.65;;;1.50;;
33148;SDS011;19506;51.040;3.856;2023-01-04T10:40:17;7.20;;;1.45;;
33148;SDS011;19506;51.040;3.856;2023-01-04T10:42:52;6.18;;;2.15;;
33148;SDS011;19506;51.040;3.856;2023-01-04T10:48:32;6.28;;;1.80;;
33148;SDS011;19506;51.040;3.856;2023-01-04T10:59:39;3.40;;;1.48;;
33148;SDS011;19506;51.040;3.856;2023-01-04T11:02:00;3.30;;;1.67;;
33148;SDS011;19506;51.040;3.856;2023-01-04T11:04:35;2.70;;;1.60;;
33148;SDS011;19506;51.040;3.856;2023-01-04T11:07:13;5.85;;;2.03;;
33148;SDS011;19506;51.040;3.856;2023-01-04T11:09:52;10.43;;;2.20;;
33148;SDS011;19506;51.040;3.856;2023-01-04T11:12:23;11.40;;;2.75;;
33148;SDS011;19506;51.040;3.856;2023-01-04T11:14:50;13.50;;;2.90;;
33148;SDS011;19506;51.040;3.856;2023-01-04T11:17:16;14.10;;;3.72;;
33148;SDS011;19506;51.040;3.856;2023-01-04T11:19:44;14.95;;;3.25;;
33148;SDS011;19506;51.040;3.856;2023-01-04T11:24:43;15.68;;;3.53;;
33148;SDS011;19506;51.040;3.856;2023-01-04T11:27:12;16.77;;;4.47;;
33148;SDS011;19506;51.040;3.856;2023-01-04T11:35:46;18.67;;;4.53;;
33148;SDS011;19506;51.040;3.856;2023-01-04T11:38:26;20.85;;;5.05;;
33148;SDS011;19506;51.040;3.856;2023-01-04T11:43:24;26.33;;;5.57;;
33148;SDS011;19506;51.040;3.856;2023-01-04T11:48:40;17.90;;;5.20;;
33148;SDS011;19506;51.040;3.856;2023-01-04T11:51:18;26.13;;;5.30;;
33148;SDS011;19506;51.040;3.856;2023-01-04T11:53:57;25.20;;;4.65;;
33148;SDS011;19506;51.040;3.856;2023-01-04T11:56:23;29.58;;;5.88;;
33148;SDS011;19506;51.040;3.856;2023-01-04T12:01:30;21.15;;;5.75;;
33148;SDS011;19506;51.040;3.856;2023-01-04T12:03:57;21.75;;;5.30;;
33148;SDS011;19506;51.040;3.856;2023-01-04T12:08:57;26.80;;;5.57;;
33148;SDS011;19506;51.040;3.856;2023-01-04T12:13:57;24.88;;;5.68;;
33148;SDS011;19506;51.040;3.856;2023-01-04T12:16:35;21.15;;;5.05;;
33148;SDS011;19506;51.040;3.856;2023-01-04T12:19:29;22.30;;;4.95;;
33148;SDS011;19506;51.040;3.856;2023-01-04T12:21:59;19.65;;;5.40;;
33148;SDS011;19506;51.040;3.856;2023-01-04T12:24:28;19.92;;;4.97;;
33148;SDS011;19506;51.040;3.856;2023-01-04T12:26:55;16.60;;;4.63;;
33148;SDS011;19506;51.040;3.856;2023-01-04T12:57:22;14.75;;;4.68;;
33148;SDS011;19506;51.040;3.856;2023-01-04T12:59:59;21.40;;;5.45;;
33148;SDS011;19506;51.040;3.856;2023-01-04T13:10:18;16.95;;;5.45;;
33148;SDS011;19506;51.040;3.856;2023-01-04T13:15:47;16.02;;;4.50;;
33148;SDS011;19506;51.040;3.856;2023-01-04T13:21:02;13.05;;;5.05;;
33148;SDS011;19506;51.040;3.856;2023-01-04T13:23:37;22.90;;;5.88;;
33148;SDS011;19506;51.040;3.856;2023-01-04T13:31:40;22.42;;;5.90;;
33148;SDS011;19506;51.040;3.856;2023-01-04T13:34:12;20.95;;;5.60;;
33148;SDS011;19506;51.040;3.856;2023-01-04T13:39:48;17.65;;;4.85;;
33148;SDS011;19506;51.040;3.856;2023-01-04T13:42:19;17.77;;;5.35;;
33148;SDS011;19506;51.040;3.856;2023-01-04T13:48:04;19.00;;;4.60;;
33148;SDS011;19506;51.040;3.856;2023-01-04T13:50:35;14.48;;;4.57;;
33148;SDS011;19506;51.040;3.856;2023-01-04T13:53:04;13.93;;;5.25;;
33148;SDS011;19506;51.040;3.856;2023-01-04T13:55:31;12.48;;;4.45;;
33148;SDS011;19506;51.040;3.856;2023-01-04T13:57:58;10.70;;;4.03;;
33148;SDS011;19506;51.040;3.856;2023-01-04T14:00:26;15.13;;;4.00;;
33148;SDS011;19506;51.040;3.856;2023-01-04T14:03:03;14.15;;;5.10;;
33148;SDS011;19506;51.040;3.856;2023-01-04T14:05:30;15.20;;;4.20;;
33148;SDS011;19506;51.040;3.856;2023-01-04T14:07:56;15.68;;;5.45;;
33148;SDS011;19506;51.040;3.856;2023-01-04T14:10:22;12.63;;;3.92;;
33148;SDS011;19506;51.040;3.856;2023-01-04T14:12:47;17.42;;;4.50;;
33148;SDS011;19506;51.040;3.856;2023-01-04T14:15:23;9.93;;;3.88;;
33148;SDS011;19506;51.040;3.856;2023-01-04T14:30:50;14.45;;;3.70;;
33148;SDS011;19506;51.040;3.856;2023-01-04T14:33:24;10.88;;;4.10;;
33148;SDS011;19506;51.040;3.856;2023-01-04T14:36:11;14.85;;;4.25;;
33148;SDS011;19506;51.040;3.856;2023-01-04T14:43:47;16.92;;;4.50;;
33148;SDS011;19506;51.040;3.856;2023-01-04T14:46:17;13.43;;;3.80;;
33148;SDS011;19506;51.040;3.856;2023-01-04T14:48:44;13.57;;;4.53;;
33148;SDS011;19506;51.040;3.856;2023-01-04T14:53:39;14.05;;;3.83;;
33148;SDS011;19506;51.040;3.856;2023-01-04T14:56:06;9.70;;;3.70;;
33148;SDS011;19506;51.040;3.856;2023-01-04T14:58:35;9.07;;;3.80;;
33148;SDS011;19506;51.040;3.856;2023-01-04T15:01:00;16.95;;;4.10;;
33148;SDS011;19506;51.040;3.856;2023-01-04T15:03:26;15.93;;;3.50;;
33148;SDS011;19506;51.040;3.856;2023-01-04T15:05:51;8.98;;;3.38;;
33148;SDS011;19506;51.040;3.856;2023-01-04T15:08:17;11.85;;;4.22;;
33148;SDS011;19506;51.040;3.856;2023-01-04T15:10:43;10.88;;;3.10;;
33148;SDS011;19506;51.040;3.856;2023-01-04T15:13:10;10.10;;;3.05;;
33148;SDS011;19506;51.040;3.856;2023-01-04T15:15:36;8.95;;;3.10;;
33148;SDS011;19506;51.040;3.856;2023-01-04T15:18:01;10.15;;;4.00;;
33148;SDS011;19506;51.040;3.856;2023-01-04T15:20:27;13.52;;;3.33;;
33148;SDS011;19506;51.040;3.856;2023-01-04T15:22:53;10.32;;;3.60;;
33148;SDS011;19506;51.040;3.856;2023-01-04T15:25:18;8.52;;;3.08;;
33148;SDS011;19506;51.040;3.856;2023-01-04T15:27:44;12.60;;;3.00;;
33148;SDS011;19506;51.040;3.856;2023-01-04T15:30:11;14.32;;;4.55;;
33148;SDS011;19506;51.040;3.856;2023-01-04T15:32:37;10.60;;;3.47;;
33148;SDS011;19506;51.040;3.856;2023-01-04T15:35:04;11.90;;;3.30;;
33148;SDS011;19506;51.040;3.856;2023-01-04T15:37:30;6.93;;;2.55;;
33148;SDS011;19506;51.040;3.856;2023-01-04T15:42:21;9.27;;;3.15;;
33148;SDS011;19506;51.040;3.856;2023-01-04T15:45:05;10.55;;;3.33;;
33148;SDS011;19506;51.040;3.856;2023-01-04T15:49:58;11.23;;;3.50;;
33148;SDS011;19506;51.040;3.856;2023-01-04T15:52:23;12.20;;;2.85;;
33148;SDS011;19506;51.040;3.856;2023-01-04T15:54:49;14.23;;;3.38;;
33148;SDS011;19506;51.040;3.856;2023-01-04T15:57:15;11.57;;;3.67;;
33148;SDS011;19506;51.040;3.856;2023-01-04T16:02:06;18.73;;;4.72;;
33148;SDS011;19506;51.040;3.856;2023-01-04T16:04:35;18.85;;;5.10;;
33148;SDS011;19506;51.040;3.856;2023-01-04T16:07:01;14.45;;;5.88;;
33148;SDS011;19506;51.040;3.856;2023-01-04T16:09:27;16.52;;;5.97;;
33148;SDS011;19506;51.040;3.856;2023-01-04T16:11:53;19.60;;;6.90;;
33148;SDS011;19506;51.040;3.856;2023-01-04T16:14:37;12.02;;;5.60;;
33148;SDS011;19506;51.040;3.856;2023-01-04T16:17:02;10.13;;;5.50;;
33148;SDS011;19506;51.040;3.856;2023-01-04T16:19:28;12.77;;;5.80;;
33148;SDS011;19506;51.040;3.856;2023-01-04T16:21:56;15.98;;;6.35;;
33148;SDS011;19506;51.040;3.856;2023-01-04T16:24:22;18.55;;;7.55;;
33148;SDS011;19506;51.040;3.856;2023-01-04T16:26:48;27.73;;;12.32;;
33148;SDS011;19506;51.040;3.856;2023-01-04T16:29:13;45.22;;;14.38;;
33148;SDS011;19506;51.040;3.856;2023-01-04T16:31:40;65.45;;;17.75;;
33148;SDS011;19506;51.040;3.856;2023-01-04T16:34:10;45.17;;;18.77;;
33148;SDS011;19506;51.040;3.856;2023-01-04T16:36:37;64.88;;;22.67;;
33148;SDS011;19506;51.040;3.856;2023-01-04T16:39:03;69.78;;;22.33;;
33148;SDS011;19506;51.040;3.856;2023-01-04T16:41:28;77.97;;;23.38;;
33148;SDS011;19506;51.040;3.856;2023-01-04T16:43:55;71.32;;;22.52;;
33148;SDS011;19506;51.040;3.856;2023-01-04T16:46:27;60.88;;;20.67;;
33148;SDS011;19506;51.040;3.856;2023-01-04T16:51:28;67.40;;;20.98;;
33148;SDS011;19506;51.040;3.856;2023-01-04T16:54:00;68.05;;;20.10;;
33148;SDS011;19506;51.040;3.856;2023-01-04T16:56:27;68.82;;;18.92;;
33148;SDS011;19506;51.040;3.856;2023-01-04T16:58:53;58.95;;;19.08;;
33148;SDS011;19506;51.040;3.856;2023-01-04T17:01:20;63.38;;;19.23;;
33148;SDS011;19506;51.040;3.856;2023-01-04T17:03:55;66.05;;;18.98;;
33148;SDS011;19506;51.040;3.856;2023-01-04T17:06:23;68.47;;;18.27;;
33148;SDS011;19506;51.040;3.856;2023-01-04T17:08:52;61.50;;;17.85;;
33148;SDS011;19506;51.040;3.856;2023-01-04T17:11:20;67.10;;;16.90;;
33148;SDS011;19506;51.040;3.856;2023-01-04T17:13:47;55.08;;;18.30;;
33148;SDS011;19506;51.040;3.856;2023-01-04T17:16:13;62.45;;;18.10;;
33148;SDS011;19506;51.040;3.856;2023-01-04T17:18:39;52.28;;;17.63;;
33148;SDS011;19506;51.040;3.856;2023-01-04T17:21:06;58.75;;;17.77;;
33148;SDS011;19506;51.040;3.856;2023-01-04T17:23:33;49.35;;;16.90;;
33148;SDS011;19506;51.040;3.856;2023-01-04T17:26:02;52.22;;;16.27;;
33148;SDS011;19506;51.040;3.856;2023-01-04T17:28:32;49.70;;;15.55;;
33148;SDS011;19506;51.040;3.856;2023-01-04T17:30:58;45.08;;;14.43;;
33148;SDS011;19506;51.040;3.856;2023-01-04T17:33:27;50.38;;;15.55;;
33148;SDS011;19506;51.040;3.856;2023-01-04T17:35:53;48.85;;;15.63;;
33148;SDS011;19506;51.040;3.856;2023-01-04T17:38:18;44.75;;;14.45;;
33148;SDS011;19506;51.040;3.856;2023-01-04T17:40:44;47.35;;;14.02;;
33148;SDS011;19506;51.040;3.856;2023-01-04T17:43:10;54.05;;;15.45;;
33148;SDS011;19506;51.040;3.856;2023-01-04T17:45:35;46.78;;;15.68;;
33148;SDS011;19506;51.040;3.856;2023-01-04T17:48:01;44.85;;;14.63;;
33148;SDS011;19506;51.040;3.856;2023-01-04T17:50:27;42.08;;;13.20;;
33148;SDS011;19506;51.040;3.856;2023-01-04T17:52:55;44.35;;;13.65;;
33148;SDS011;19506;51.040;3.856;2023-01-04T17:55:22;47.63;;;13.27;;
33148;SDS011;19506;51.040;3.856;2023-01-04T17:57:47;43.17;;;13.18;;
33148;SDS011;19506;51.040;3.856;2023-01-04T18:00:13;43.75;;;13.40;;
33148;SDS011;19506;51.040;3.856;2023-01-04T18:02:40;36.50;;;13.40;;
33148;SDS011;19506;51.040;3.856;2023-01-04T18:05:06;37.20;;;12.50;;
33148;SDS011;19506;51.040;3.856;2023-01-04T18:07:32;38.95;;;12.35;;
33148;SDS011;19506;51.040;3.856;2023-01-04T18:09:59;41.60;;;12.90;;
33148;SDS011;19506;51.040;3.856;2023-01-04T18:12:25;34.38;;;10.40;;
33148;SDS011;19506;51.040;3.856;2023-01-04T18:14:53;35.42;;;11.35;;
33148;SDS011;19506;51.040;3.856;2023-01-04T18:17:19;32.63;;;12.18;;
33148;SDS011;19506;51.040;3.856;2023-01-04T18:19:45;39.88;;;10.77;;
33148;SDS011;19506;51.040;3.856;2023-01-04T18:22:10;42.05;;;11.73;;
33148;SDS011;19506;51.040;3.856;2023-01-04T18:24:36;28.02;;;11.20;;
33148;SDS011;19506;51.040;3.856;2023-01-04T18:27:02;31.75;;;10.57;;
33148;SDS011;19506;51.040;3.856;2023-01-04T18:29:27;31.13;;;10.07;;
33148;SDS011;19506;51.040;3.856;2023-01-04T18:31:53;35.55;;;10.75;;